Time;durP1;ratioP1;P1;durP2;ratioP2;P2;SDS_P1;SDS_P2;PMS_P1;PMS_P2;Temp;Humidity;BMP_temperature;BMP_pressure;BME280_temperature;BME280_humidity;BME280_pressure;Samples;Min_cycle;Max_cycle;Signal;HPM_P1;HPM_P2
2022/08/28 00:00:25;;;;;;;0.00;0.00;;;15.60;99.90;;;;;;5037803;28;20667;-69
2022/08/28 00:02:55;;;;;;;0.00;0.00;;;15.50;99.90;;;;;;5037952;28;20913;-69
2022/08/28 00:05:26;;;;;;;0.00;0.00;;;15.50;99.90;;;;;;5037856;28;20436;-69
2022/08/28 00:07:54;;;;;;;0.00;0.00;;;15.50;99.90;;;;;;5037978;28;20545;-69
2022/08/28 00:10:23;;;;;;;0.00;0.00;;;15.50;99.90;;;;;;5040870;28;20462;-69
2022/08/28 00:12:54;;;;;;;0.00;0.00;;;15.40;99.90;;;;;;5042160;28;20446;-69
2022/08/28 00:15:27;;;;;;;0.00;0.00;;;15.50;99.90;;;;;;5041711;28;20479;-69
2022/08/28 00:17:57;;;;;;;0.00;0.00;;;15.40;99.90;;;;;;5042091;28;21060;-68
2022/08/28 00:20:26;;;;;;;0.00;0.00;;;15.40;99.90;;;;;;5042145;28;21033;-69
2022/08/28 00:22:54;;;;;;;0.00;0.00;;;15.40;99.90;;;;;;5041528;28;20452;-68
2022/08/28 00:25:25;;;;;;;0.00;0.00;;;15.40;99.90;;;;;;5041310;28;20530;-69
2022/08/28 00:27:53;;;;;;;0.00;0.00;;;15.40;99.90;;;;;;5041490;28;20432;-68
2022/08/28 00:30:23;;;;;;;0.00;0.00;;;15.40;99.90;;;;;;5041612;28;20440;-69
2022/08/28 00:32:52;;;;;;;0.00;0.00;;;15.30;99.90;;;;;;5041818;28;20440;-69
2022/08/28 00:35:22;;;;;;;0.00;0.00;;;15.30;99.90;;;;;;5041762;28;20463;-69
2022/08/28 00:37:50;;;;;;;0.00;0.00;;;15.30;99.90;;;;;;5041285;28;20871;-68
2022/08/28 00:40:22;;;;;;;0.00;0.00;;;15.30;99.90;;;;;;5041223;28;20472;-69
2022/08/28 00:43:01;;;;;;;0.00;0.00;;;15.30;99.90;;;;;;5041354;28;20538;-69
2022/08/28 00:45:30;;;;;;;0.00;0.00;;;15.20;99.90;;;;;;5041465;28;20778;-69
2022/08/28 00:48:04;;;;;;;0.00;0.00;;;15.10;99.90;;;;;;5041523;28;20439;-69
2022/08/28 00:52:04;;;;;;;0.00;0.00;;;15.10;99.90;;;;;;5041025;28;20713;-68
2022/08/28 00:53:26;;;;;;;0.00;0.00;;;15.10;99.90;;;;;;5041273;28;20510;-69
2022/08/28 00:56:02;;;;;;;0.00;0.00;;;15.10;99.90;;;;;;5041074;28;20459;-69
2022/08/28 00:58:33;;;;;;;0.00;0.00;;;15.00;99.90;;;;;;5041166;28;20470;-69
2022/08/28 01:01:01;;;;;;;0.00;0.00;;;15.10;99.90;;;;;;5040740;28;20983;-69
2022/08/28 01:03:29;;;;;;;0.00;0.00;;;15.10;99.90;;;;;;5040733;28;21009;-69
2022/08/28 01:05:59;;;;;;;0.00;0.00;;;15.10;99.90;;;;;;5040556;28;20509;-69
2022/08/28 01:08:27;;;;;;;0.00;0.00;;;15.00;99.90;;;;;;5041030;28;20529;-68
2022/08/28 01:11:01;;;;;;;0.00;0.00;;;15.00;99.90;;;;;;5041267;28;20440;-68
2022/08/28 01:13:30;;;;;;;0.00;0.00;;;15.00;99.90;;;;;;5041386;28;20444;-68
2022/08/28 01:15:59;;;;;;;0.00;0.00;;;15.00;99.90;;;;;;5041026;28;20466;-67
2022/08/28 01:18:29;;;;;;;0.00;0.00;;;15.10;99.90;;;;;;5040693;28;20642;-68
2022/08/28 01:21:05;;;;;;;0.00;0.00;;;15.10;99.90;;;;;;5039685;28;20472;-67
2022/08/28 01:24:02;;;;;;;0.00;0.00;;;15.10;99.90;;;;;;5040528;28;20810;-68
2022/08/28 01:26:31;;;;;;;0.00;0.00;;;15.10;99.90;;;;;;4983090;28;20733;-68
2022/08/28 01:29:00;;;;;;;0.00;0.00;;;15.00;99.90;;;;;;5040292;28;20460;-67
2022/08/28 01:31:31;;;;;;;0.00;0.00;;;15.00;99.90;;;;;;5040939;28;20460;-68
2022/08/28 01:33:59;;;;;;;0.00;0.00;;;15.00;99.90;;;;;;5040565;28;20795;-68
2022/08/28 01:36:29;;;;;;;0.00;0.00;;;15.00;99.90;;;;;;5041050;28;20760;-68
2022/08/28 01:39:01;;;;;;;0.00;0.00;;;14.90;99.90;;;;;;5040562;28;20452;-67
2022/08/28 01:41:30;;;;;;;0.00;0.00;;;15.00;99.90;;;;;;5040582;28;20922;-68
2022/08/28 01:43:58;;;;;;;0.00;0.00;;;15.00;99.90;;;;;;5040600;28;20441;-68
2022/08/28 01:46:26;;;;;;;0.00;0.00;;;15.00;99.90;;;;;;5040202;28;20436;-67
2022/08/28 01:48:55;;;;;;;0.00;0.00;;;14.90;99.90;;;;;;5040539;28;20551;-68
2022/08/28 01:51:22;;;;;;;0.00;0.00;;;14.90;99.90;;;;;;5040869;28;20443;-68
2022/08/28 01:53:51;;;;;;;0.00;0.00;;;14.90;99.90;;;;;;5040922;28;20510;-68
2022/08/28 01:56:19;;;;;;;0.00;0.00;;;14.90;99.90;;;;;;5040603;28;20448;-67
2022/08/28 01:58:48;;;;;;;0.00;0.00;;;14.90;99.90;;;;;;5039916;28;21085;-68
2022/08/28 02:01:19;;;;;;;0.00;0.00;;;14.90;99.90;;;;;;5039951;28;20476;-67
2022/08/28 02:03:47;;;;;;;0.00;0.00;;;14.90;99.90;;;;;;5040116;28;20625;-67
2022/08/28 02:06:17;;;;;;;0.00;0.00;;;14.90;99.90;;;;;;5039795;28;20448;-68
2022/08/28 02:08:45;;;;;;;0.00;0.00;;;14.80;99.90;;;;;;5039758;28;20555;-68
2022/08/28 02:11:14;;;;;;;0.00;0.00;;;14.80;99.90;;;;;;5039595;28;20448;-67
2022/08/28 02:13:42;;;;;;;0.00;0.00;;;14.80;99.90;;;;;;5039771;28;20732;-68
2022/08/28 02:21:44;;;;;;;0.00;0.00;;;14.80;99.90;;;;;;4943628;29;20785;-68
2022/08/28 02:24:12;;;;;;;0.00;0.00;;;14.80;99.90;;;;;;4940711;29;20443;-68
2022/08/28 02:26:40;;;;;;;0.00;0.00;;;14.80;99.90;;;;;;4938866;29;20467;-68
2022/08/28 02:29:08;;;;;;;0.00;0.00;;;14.80;99.90;;;;;;4989774;28;20456;-68
2022/08/28 02:31:36;;;;;;;0.00;0.00;;;14.80;99.90;;;;;;5040015;28;20594;-67
2022/08/28 02:34:04;;;;;;;0.00;0.00;;;14.90;99.90;;;;;;5038991;28;20819;-68
2022/08/28 02:36:33;;;;;;;0.00;0.00;;;14.90;99.90;;;;;;5039989;28;20569;-69
2022/08/28 02:39:02;;;;;;;0.00;0.00;;;14.90;99.90;;;;;;5039162;28;20456;-69
2022/08/28 02:41:30;;;;;;;0.00;0.00;;;14.90;99.90;;;;;;5039259;28;20478;-69
2022/08/28 02:43:58;;;;;;;0.00;0.00;;;14.80;99.90;;;;;;5039602;28;20539;-69
2022/08/28 02:46:26;;;;;;;0.00;0.00;;;14.80;99.90;;;;;;5039263;28;20837;-68
2022/08/28 02:48:55;;;;;;;0.00;0.00;;;14.80;99.90;;;;;;5039058;28;20464;-68
2022/08/28 02:51:23;;;;;;;0.00;0.00;;;14.80;99.90;;;;;;5038963;28;20475;-68
2022/08/28 02:53:51;;;;;;;0.00;0.00;;;14.80;99.90;;;;;;5038676;28;20444;-68
2022/08/28 02:56:20;;;;;;;0.00;0.00;;;14.80;99.90;;;;;;5039217;28;20466;-68
2022/08/28 02:58:48;;;;;;;0.00;0.00;;;14.80;99.90;;;;;;5038720;28;20726;-68
2022/08/28 03:01:16;;;;;;;0.00;0.00;;;14.80;99.90;;;;;;5038860;28;20467;-68
2022/08/28 03:03:44;;;;;;;0.00;0.00;;;14.70;99.90;;;;;;5039014;28;20480;-68
2022/08/28 03:06:12;;;;;;;0.00;0.00;;;14.80;99.90;;;;;;5038844;28;20444;-68
2022/08/28 03:08:43;;;;;;;0.00;0.00;;;14.80;99.90;;;;;;5038961;28;20464;-68
2022/08/28 03:11:11;;;;;;;0.00;0.00;;;14.70;99.90;;;;;;5038668;28;20462;-67
2022/08/28 03:13:41;;;;;;;0.00;0.00;;;14.70;99.90;;;;;;5038891;28;20757;-68
2022/08/28 03:16:09;;;;;;;0.00;0.00;;;14.70;99.90;;;;;;5039110;28;20446;-68
2022/08/28 03:18:38;;;;;;;0.00;0.00;;;14.70;99.90;;;;;;5038661;28;20462;-67
2022/08/28 03:21:06;;;;;;;0.00;0.00;;;14.70;99.90;;;;;;5038472;28;20452;-67
2022/08/28 03:23:35;;;;;;;0.00;0.00;;;14.70;99.90;;;;;;5038609;28;21100;-67
2022/08/28 03:26:06;;;;;;;0.00;0.00;;;14.70;99.90;;;;;;5038572;28;20706;-67
2022/08/28 03:28:37;;;;;;;0.00;0.00;;;14.70;99.90;;;;;;5038056;28;20462;-67
2022/08/28 03:31:08;;;;;;;0.00;0.00;;;14.60;99.90;;;;;;5038199;28;20487;-67
2022/08/28 03:33:36;;;;;;;0.00;0.00;;;14.60;99.90;;;;;;5038333;28;20866;-67
2022/08/28 03:36:10;;;;;;;0.00;0.00;;;14.50;99.90;;;;;;5038465;28;20436;-66
2022/08/28 03:38:38;;;;;;;0.00;0.00;;;14.50;99.90;;;;;;5038435;28;20483;-67
2022/08/28 03:41:10;;;;;;;0.00;0.00;;;14.50;99.90;;;;;;5038370;28;20447;-67
2022/08/28 03:43:38;;;;;;;0.00;0.00;;;14.50;99.90;;;;;;5037803;28;20711;-67
2022/08/28 03:46:12;;;;;;;0.00;0.00;;;14.50;99.90;;;;;;5038035;28;20440;-67
2022/08/28 03:48:40;;;;;;;0.00;0.00;;;14.50;99.90;;;;;;5038180;28;20500;-67
2022/08/28 03:51:13;;;;;;;0.00;0.00;;;14.40;99.90;;;;;;5038134;28;20436;-67
2022/08/28 03:53:42;;;;;;;0.00;0.00;;;14.40;99.90;;;;;;5038062;28;20440;-67
2022/08/28 03:56:12;;;;;;;0.00;0.00;;;14.40;99.90;;;;;;5037447;28;20455;-67
2022/08/28 03:58:41;;;;;;;0.00;0.00;;;14.40;99.90;;;;;;5037891;28;20985;-66
2022/08/28 04:01:10;;;;;;;0.00;0.00;;;14.40;99.90;;;;;;5037681;28;20446;-67
2022/08/28 04:03:38;;;;;;;0.00;0.00;;;14.40;99.90;;;;;;5038098;28;20502;-67
2022/08/28 04:06:07;;;;;;;0.00;0.00;;;14.40;99.90;;;;;;5038439;28;20858;-67
2022/08/28 04:08:35;;;;;;;0.00;0.00;;;14.40;99.90;;;;;;5038094;28;20574;-67
2022/08/28 04:11:03;;;;;;;0.00;0.00;;;14.40;99.90;;;;;;5037790;28;20432;-67
2022/08/28 04:13:31;;;;;;;0.00;0.00;;;14.30;99.90;;;;;;5038064;28;20443;-67
2022/08/28 04:16:01;;;;;;;0.00;0.00;;;14.30;99.90;;;;;;5037762;28;20932;-67
2022/08/28 04:18:34;;;;;;;0.00;0.00;;;14.30;99.90;;;;;;5037805;28;20488;-67
2022/08/28 04:21:06;;;;;;;0.00;0.00;;;14.30;99.90;;;;;;5037308;28;20531;-67
2022/08/28 04:23:35;;;;;;;0.00;0.00;;;14.30;99.90;;;;;;5037774;28;20987;-67
2022/08/28 04:26:04;;;;;;;0.00;0.00;;;14.30;99.90;;;;;;5037805;28;20446;-67
2022/08/28 04:28:32;;;;;;;0.00;0.00;;;14.30;99.90;;;;;;5037544;28;20982;-67
2022/08/28 04:31:00;;;;;;;0.00;0.00;;;14.40;99.90;;;;;;5037697;28;20444;-67
2022/08/28 04:33:29;;;;;;;0.00;0.00;;;14.40;99.90;;;;;;5037801;28;20436;-67
2022/08/28 04:36:02;;;;;;;0.00;0.00;;;14.40;99.90;;;;;;5037546;28;20834;-67
2022/08/28 04:38:30;;;;;;;0.00;0.00;;;14.40;99.90;;;;;;5037684;28;20464;-67
2022/08/28 04:40:58;;;;;;;0.00;0.00;;;14.40;99.90;;;;;;5037367;28;20441;-67
2022/08/28 04:43:26;;;;;;;0.00;0.00;;;14.40;99.90;;;;;;5037536;28;21182;-67
2022/08/28 04:45:53;;;;;;;0.00;0.00;;;14.40;99.90;;;;;;5037668;28;20852;-67
2022/08/28 04:48:21;;;;;;;0.00;0.00;;;14.40;99.90;;;;;;5037383;28;20475;-67
2022/08/28 04:50:49;;;;;;;0.00;0.00;;;14.40;99.90;;;;;;5037414;28;20448;-69
2022/08/28 04:53:20;;;;;;;0.00;0.00;;;14.40;99.90;;;;;;5037222;28;20440;-67
2022/08/28 04:55:50;;;;;;;0.00;0.00;;;14.50;99.90;;;;;;5038166;28;21091;-67
2022/08/28 04:58:22;;;;;;;0.00;0.00;;;14.50;99.90;;;;;;5041183;28;20451;-67
2022/08/28 05:00:52;;;;;;;0.00;0.00;;;14.50;99.90;;;;;;5041037;28;20985;-67
2022/08/28 05:03:21;;;;;;;0.00;0.00;;;14.60;99.90;;;;;;5041304;28;20511;-67
2022/08/28 05:05:53;;;;;;;0.00;0.00;;;14.60;99.90;;;;;;5041168;28;20456;-68
2022/08/28 05:08:26;;;;;;;0.00;0.00;;;14.70;99.90;;;;;;5041018;28;20543;-67
2022/08/28 05:10:54;;;;;;;0.00;0.00;;;14.70;99.90;;;;;;5040882;28;20834;-67
2022/08/28 05:13:26;;;;;;;0.00;0.00;;;14.80;99.90;;;;;;5041102;28;20436;-67
2022/08/28 05:15:54;;;;;;;0.00;0.00;;;14.80;99.90;;;;;;5040983;28;20736;-67
2022/08/28 05:18:23;;;;;;;0.00;0.00;;;14.80;99.90;;;;;;5040920;28;20774;-68
2022/08/28 05:20:51;;;;;;;0.00;0.00;;;14.90;99.90;;;;;;5040597;28;20674;-68
2022/08/28 05:23:19;;;;;;;0.00;0.00;;;14.90;99.90;;;;;;5040393;28;21149;-67
2022/08/28 05:25:53;;;;;;;0.00;0.00;;;15.00;99.90;;;;;;5040554;28;20560;-67
2022/08/28 05:28:23;;;;;;;0.00;0.00;;;15.00;99.90;;;;;;5041238;28;20490;-67
2022/08/28 05:30:51;;;;;;;0.00;0.00;;;15.00;99.90;;;;;;5040827;28;21034;-67
2022/08/28 05:33:20;;;;;;;0.00;0.00;;;15.00;99.90;;;;;;5040744;28;20535;-67
2022/08/28 05:35:48;;;;;;;0.00;0.00;;;15.10;99.90;;;;;;5041149;28;20450;-67
2022/08/28 05:38:16;;;;;;;0.00;0.00;;;15.10;99.90;;;;;;5040776;28;20925;-67
2022/08/28 05:40:48;;;;;;;0.00;0.00;;;15.20;99.90;;;;;;5040109;28;20448;-67
2022/08/28 05:43:18;;;;;;;0.00;0.00;;;15.30;99.90;;;;;;5040409;28;20507;-69
2022/08/28 05:45:45;;;;;;;0.00;0.00;;;15.30;99.90;;;;;;5040262;28;20442;-69
2022/08/28 05:48:15;;;;;;;0.00;0.00;;;15.40;99.90;;;;;;5040296;28;20570;-69
2022/08/28 05:50:42;;;;;;;0.00;0.00;;;15.50;99.90;;;;;;5039749;28;20527;-69
2022/08/28 05:53:15;;;;;;;0.00;0.00;;;15.50;99.90;;;;;;5039900;28;20441;-69
2022/08/28 05:55:43;;;;;;;0.00;0.00;;;15.50;99.90;;;;;;5040045;28;20694;-69
2022/08/28 05:58:33;;;;;;;0.00;0.00;;;15.60;99.90;;;;;;5039863;28;20527;-67
2022/08/28 06:01:11;;;;;;;0.00;0.00;;;15.70;99.90;;;;;;5039938;28;20440;-67
2022/08/28 06:03:40;;;;;;;0.00;0.00;;;15.70;99.90;;;;;;5039916;28;20553;-70
2022/08/28 06:06:10;;;;;;;0.00;0.00;;;15.70;99.90;;;;;;5040290;28;20440;-67
2022/08/28 06:08:38;;;;;;;0.00;0.00;;;15.70;99.90;;;;;;5039593;28;20632;-67
2022/08/28 06:11:27;;;;;;;0.00;0.00;;;15.80;99.90;;;;;;5039845;28;20441;-67
2022/08/28 06:13:59;;;;;;;0.00;0.00;;;15.90;99.90;;;;;;5040265;28;20459;-67
2022/08/28 06:16:31;;;;;;;0.00;0.00;;;15.90;99.90;;;;;;5039772;28;20846;-67
2022/08/28 06:18:59;;;;;;;0.00;0.00;;;16.00;99.90;;;;;;5039621;28;20975;-67
2022/08/28 06:21:28;;;;;;;0.00;0.00;;;16.00;99.90;;;;;;5039667;28;20928;-67
2022/08/28 06:23:56;;;;;;;0.00;0.00;;;16.10;99.90;;;;;;5040092;28;20663;-67
2022/08/28 06:26:24;;;;;;;0.00;0.00;;;16.20;99.90;;;;;;5039923;28;20811;-67
2022/08/28 06:28:52;;;;;;;0.00;0.00;;;16.10;99.90;;;;;;5039783;28;21010;-67
2022/08/28 06:31:20;;;;;;;0.00;0.00;;;16.20;99.90;;;;;;5039471;28;20441;-67
2022/08/28 06:33:54;;;;;;;0.00;0.00;;;16.30;99.90;;;;;;5039772;28;20735;-67
2022/08/28 06:36:22;;;;;;;0.00;0.00;;;16.50;99.90;;;;;;5039510;28;20890;-67
2022/08/28 06:38:50;;;;;;;0.00;0.00;;;16.50;99.90;;;;;;5039197;28;20470;-68
2022/08/28 06:41:18;;;;;;;0.00;0.00;;;16.70;99.90;;;;;;5039349;28;20749;-68
2022/08/28 06:43:47;;;;;;;0.00;0.00;;;16.80;99.90;;;;;;5039282;28;21032;-68
2022/08/28 06:46:15;;;;;;;0.00;0.00;;;16.90;99.90;;;;;;5039031;28;20528;-68
2022/08/28 06:48:43;;;;;;;0.00;0.00;;;16.90;99.90;;;;;;5038819;28;20506;-68
2022/08/28 06:51:13;;;;;;;0.00;0.00;;;17.00;99.90;;;;;;5038841;28;20613;-68
2022/08/28 06:53:42;;;;;;;0.00;0.00;;;17.00;99.90;;;;;;5039141;28;20443;-68
2022/08/28 06:56:12;;;;;;;0.00;0.00;;;17.10;99.90;;;;;;5039288;28;20445;-68
2022/08/28 06:58:52;;;;;;;0.00;0.00;;;17.20;99.90;;;;;;5038839;28;20549;-68
2022/08/28 07:01:22;;;;;;;0.00;0.00;;;17.30;99.90;;;;;;5038951;28;20690;-70
2022/08/28 07:03:52;;;;;;;0.00;0.00;;;17.40;99.90;;;;;;5038758;28;21082;-70
2022/08/28 07:06:23;;;;;;;0.00;0.00;;;17.30;99.90;;;;;;5038920;28;20736;-70
2022/08/28 07:08:51;;;;;;;0.00;0.00;;;17.40;99.90;;;;;;5038394;28;20472;-69
2022/08/28 07:11:21;;;;;;;0.00;0.00;;;17.50;99.90;;;;;;5038063;28;20632;-68
2022/08/28 07:13:54;;;;;;;0.00;0.00;;;17.50;99.90;;;;;;5038800;28;20457;-68
2022/08/28 07:16:24;;;;;;;0.00;0.00;;;17.50;99.90;;;;;;5038580;28;20743;-68
2022/08/28 07:18:52;;;;;;;0.00;0.00;;;17.60;99.90;;;;;;5037966;28;20855;-67
2022/08/28 07:21:22;;;;;;;0.00;0.00;;;17.60;99.90;;;;;;5038410;28;20472;-69
2022/08/28 07:23:49;;;;;;;0.00;0.00;;;17.70;99.90;;;;;;5038051;28;20977;-69
2022/08/28 07:26:19;;;;;;;0.00;0.00;;;17.90;99.90;;;;;;5038381;28;20480;-69
2022/08/28 07:28:47;;;;;;;0.00;0.00;;;17.90;99.90;;;;;;5038065;28;20994;-69
2022/08/28 07:31:18;;;;;;;0.00;0.00;;;17.90;99.90;;;;;;5038058;28;20537;-69
2022/08/28 07:33:46;;;;;;;0.00;0.00;;;18.00;99.90;;;;;;5038476;28;20877;-67
2022/08/28 07:36:24;;;;;;;0.00;0.00;;;18.00;99.90;;;;;;5038140;28;20827;-68
2022/08/28 07:38:57;;;;;;;0.00;0.00;;;18.10;99.90;;;;;;5038224;28;20742;-68
2022/08/28 07:41:26;;;;;;;0.00;0.00;;;18.10;99.90;;;;;;5038326;28;20452;-68
2022/08/28 07:46:41;;;;;;;0.00;0.00;;;18.20;99.90;;;;;;5038395;28;20614;-67
2022/08/28 07:49:09;;;;;;;0.00;0.00;;;18.20;99.90;;;;;;5038329;28;20630;-67
2022/08/28 07:51:38;;;;;;;0.00;0.00;;;18.20;99.90;;;;;;5038058;28;20450;-67
2022/08/28 07:54:06;;;;;;;0.00;0.00;;;18.40;99.90;;;;;;5038254;28;20570;-67
2022/08/28 07:56:43;;;;;;;0.00;0.00;;;18.40;99.90;;;;;;5038731;28;20449;-67
2022/08/28 07:59:12;;;;;;;0.00;0.00;;;18.50;99.90;;;;;;5038301;28;20460;-67
2022/08/28 08:01:46;;;;;;;0.00;0.00;;;18.60;99.90;;;;;;5038469;28;20731;-67
2022/08/28 08:04:16;;;;;;;0.00;0.00;;;18.60;99.90;;;;;;5037682;28;20437;-67
2022/08/28 08:06:46;;;;;;;0.00;0.00;;;18.60;99.90;;;;;;5038305;28;20449;-67
2022/08/28 08:09:16;;;;;;;0.00;0.00;;;18.80;99.90;;;;;;5037855;28;20474;-67
2022/08/28 08:11:45;;;;;;;0.00;0.00;;;18.80;99.90;;;;;;5037950;28;20746;-70
2022/08/28 08:14:13;;;;;;;0.00;0.00;;;18.90;99.90;;;;;;5038182;28;20785;-67
2022/08/28 08:16:44;;;;;;;0.00;0.00;;;18.90;99.90;;;;;;5037512;28;20650;-67
2022/08/28 08:19:13;;;;;;;0.00;0.00;;;18.90;99.90;;;;;;5037476;28;20466;-67
2022/08/28 08:21:43;;;;;;;0.00;0.00;;;19.00;99.90;;;;;;5037495;28;20447;-67
2022/08/28 08:24:14;;;;;;;0.00;0.00;;;19.10;99.90;;;;;;5037869;28;20454;-67
2022/08/28 08:26:47;;;;;;;0.00;0.00;;;19.30;99.90;;;;;;5037543;28;20922;-66
2022/08/28 08:29:28;;;;;;;0.00;0.00;;;19.40;99.90;;;;;;5037710;28;20498;-67
2022/08/28 08:32:01;;;;;;;0.00;0.00;;;19.60;99.90;;;;;;5041669;28;20450;-67
2022/08/28 08:34:29;;;;;;;0.00;0.00;;;19.70;99.90;;;;;;5041768;28;20939;-67
2022/08/28 08:36:57;;;;;;;0.00;0.00;;;19.80;99.90;;;;;;5041444;28;20543;-67
2022/08/28 08:39:26;;;;;;;0.00;0.00;;;19.80;99.90;;;;;;5040982;28;20529;-67
2022/08/28 08:41:57;;;;;;;0.00;0.00;;;19.80;99.90;;;;;;5042350;28;20436;-69
2022/08/28 08:44:28;;;;;;;0.00;0.00;;;19.70;99.90;;;;;;5043176;28;20432;-67
2022/08/28 08:47:09;;;;;;;0.00;0.00;;;19.60;99.90;;;;;;5041331;28;20423;-67
2022/08/28 08:49:47;;;;;;;0.00;0.00;;;19.60;99.90;;;;;;5041228;28;20539;-67
2022/08/28 08:52:27;;;;;;;0.00;0.00;;;19.50;99.90;;;;;;5041451;28;20424;-66
2022/08/28 08:55:08;;;;;;;0.00;0.00;;;19.60;99.90;;;;;;5041211;28;20939;-67
2022/08/28 08:57:38;;;;;;;0.00;0.00;;;19.70;99.90;;;;;;5041335;28;20456;-67
2022/08/28 09:00:10;;;;;;;0.00;0.00;;;19.70;99.90;;;;;;5040907;28;20455;-67
2022/08/28 09:02:52;;;;;;;0.00;0.00;;;19.70;99.90;;;;;;5040717;28;20501;-67
2022/08/28 09:05:23;;;;;;;0.00;0.00;;;19.70;99.90;;;;;;5040950;28;20476;-67
2022/08/28 09:07:56;;;;;;;0.00;0.00;;;19.90;99.90;;;;;;5040875;28;20457;-69
2022/08/28 09:10:38;;;;;;;0.00;0.00;;;20.10;99.90;;;;;;5040166;28;20944;-69
2022/08/28 09:13:15;;;;;;;0.00;0.00;;;20.40;99.90;;;;;;5040730;28;20428;-69
2022/08/28 09:15:45;;;;;;;0.00;0.00;;;20.50;99.90;;;;;;5040761;28;20436;-69
2022/08/28 09:18:21;;;;;;;0.00;0.00;;;20.70;99.90;;;;;;5040973;28;20839;-68
2022/08/28 09:20:50;;;;;;;0.00;0.00;;;20.70;99.90;;;;;;5041566;28;20619;-67
2022/08/28 09:23:19;;;;;;;0.00;0.00;;;20.60;99.90;;;;;;5040840;28;20485;-67
2022/08/28 09:25:53;;;;;;;0.00;0.00;;;20.40;99.90;;;;;;5041105;28;20487;-67
2022/08/28 09:28:24;;;;;;;0.00;0.00;;;20.20;99.90;;;;;;5040786;28;20559;-67
2022/08/28 09:30:56;;;;;;;0.00;0.00;;;20.10;99.90;;;;;;5040507;28;20722;-67
2022/08/28 09:33:30;;;;;;;0.00;0.00;;;20.00;99.90;;;;;;5040593;28;20928;-67
2022/08/28 09:35:58;;;;;;;0.00;0.00;;;20.10;99.90;;;;;;5040326;28;20807;-68
2022/08/28 09:38:27;;;;;;;0.00;0.00;;;20.10;99.90;;;;;;5040666;28;20464;-68
2022/08/28 09:43:55;;;;;;;0.00;0.00;;;20.60;99.90;;;;;;5040084;28;20490;-67
2022/08/28 09:46:31;;;;;;;0.00;0.00;;;21.00;99.90;;;;;;5040196;28;20779;-68
2022/08/28 09:49:09;;;;;;;0.00;0.00;;;21.20;99.90;;;;;;5040333;28;20487;-68
2022/08/28 09:51:38;;;;;;;0.00;0.00;;;21.30;99.90;;;;;;5040213;28;20677;-68
2022/08/28 09:54:15;;;;;;;0.00;0.00;;;21.50;99.90;;;;;;5040249;28;20443;-68
2022/08/28 09:56:46;;;;;;;0.00;0.00;;;21.50;99.90;;;;;;5039882;28;20468;-68
2022/08/28 09:59:16;;;;;;;0.00;0.00;;;21.60;99.90;;;;;;5039777;28;21017;-68
2022/08/28 10:01:54;;;;;;;0.00;0.00;;;21.60;99.90;;;;;;5039989;28;20437;-68
2022/08/28 10:04:36;;;;;;;0.00;0.00;;;21.80;99.90;;;;;;5040106;28;20499;-67
2022/08/28 10:07:09;;;;;;;0.00;0.00;;;21.90;99.90;;;;;;5039659;28;20503;-68
2022/08/28 10:09:50;;;;;;;0.00;0.00;;;21.80;99.90;;;;;;5039311;28;20887;-68
2022/08/28 10:12:34;;;;;;;0.00;0.00;;;21.80;99.90;;;;;;5039859;28;20475;-68
2022/08/28 10:15:10;;;;;;;0.00;0.00;;;21.70;99.90;;;;;;5039482;28;20854;-68
2022/08/28 10:17:47;;;;;;;0.00;0.00;;;21.80;99.90;;;;;;5039293;28;20604;-68
2022/08/28 10:20:20;;;;;;;0.00;0.00;;;21.80;99.90;;;;;;5039177;28;20460;-67
2022/08/28 10:22:55;;;;;;;0.00;0.00;;;22.00;99.90;;;;;;5039611;28;20453;-67
2022/08/28 10:25:31;;;;;;;0.00;0.00;;;22.10;99.90;;;;;;5039658;28;20438;-67
2022/08/28 10:28:22;;;;;;;0.00;0.00;;;22.20;99.90;;;;;;5039531;28;20417;-67
2022/08/28 10:30:58;;;;;;;0.00;0.00;;;22.30;99.90;;;;;;5039004;28;20445;-67
2022/08/28 10:33:41;;;;;;;0.00;0.00;;;22.30;99.90;;;;;;5039588;28;20481;-69
2022/08/28 10:36:14;;;;;;;0.00;0.00;;;22.50;99.90;;;;;;5038959;28;20491;-68
2022/08/28 10:39:21;;;;;;;0.00;0.00;;;22.60;99.90;;;;;;5038956;28;20462;-67
2022/08/28 10:41:54;;;;;;;0.00;0.00;;;22.60;99.90;;;;;;5038960;28;20446;-68
2022/08/28 10:44:31;;;;;;;0.00;0.00;;;22.60;99.90;;;;;;5039292;28;20456;-68
2022/08/28 10:47:00;;;;;;;0.00;0.00;;;22.50;99.90;;;;;;5038883;28;20504;-68
2022/08/28 10:49:32;;;;;;;0.00;0.00;;;22.40;99.90;;;;;;5038413;28;21056;-68
2022/08/28 10:52:05;;;;;;;0.00;0.00;;;22.30;99.90;;;;;;5038899;28;20808;-68
2022/08/28 10:54:38;;;;;;;0.00;0.00;;;22.20;99.90;;;;;;5038097;28;20450;-68
2022/08/28 10:57:18;;;;;;;0.00;0.00;;;22.20;99.90;;;;;;5039757;28;20441;-71
2022/08/28 10:59:50;;;;;;;0.00;0.00;;;22.20;99.90;;;;;;5040616;28;20463;-68
2022/08/28 11:02:20;;;;;;;0.00;0.00;;;22.20;99.90;;;;;;5039244;28;20602;-67
2022/08/28 11:04:48;;;;;;;0.00;0.00;;;22.20;99.90;;;;;;5038672;28;20442;-68
2022/08/28 11:07:24;;;;;;;0.00;0.00;;;22.20;99.90;;;;;;5038481;28;20630;-68
2022/08/28 11:09:52;;;;;;;0.00;0.00;;;22.20;99.90;;;;;;5038276;28;20843;-68
2022/08/28 11:12:41;;;;;;;0.00;0.00;;;22.20;99.90;;;;;;5038332;28;20474;-68
2022/08/28 11:15:40;;;;;;;0.00;0.00;;;22.20;99.90;;;;;;5038693;28;20430;-68
2022/08/28 11:18:57;;;;;;;0.00;0.00;;;22.10;99.90;;;;;;5037583;28;20432;-68
2022/08/28 11:21:27;;;;;;;0.00;0.00;;;21.90;99.90;;;;;;4957030;28;20448;-68
2022/08/28 11:24:03;;;;;;;0.00;0.00;;;21.90;99.90;;;;;;5031386;28;20712;-68
2022/08/28 11:26:40;;;;;;;0.00;0.00;;;21.90;99.90;;;;;;5038724;28;20480;-68
2022/08/28 11:29:08;;;;;;;0.00;0.00;;;21.90;99.90;;;;;;5038450;28;20666;-68
2022/08/28 11:31:40;;;;;;;0.00;0.00;;;22.00;99.90;;;;;;5038237;28;20448;-68
2022/08/28 11:34:08;;;;;;;0.00;0.00;;;22.10;99.90;;;;;;5038474;28;20480;-68
2022/08/28 11:36:58;;;;;;;0.00;0.00;;;22.20;99.90;;;;;;5038271;28;20960;-67
2022/08/28 11:39:26;;;;;;;0.00;0.00;;;22.30;99.90;;;;;;5037810;28;20838;-68
2022/08/28 11:42:30;;;;;;;0.00;0.00;;;22.40;99.90;;;;;;5038382;28;20760;-67
2022/08/28 11:44:59;;;;;;;0.00;0.00;;;22.40;99.90;;;;;;5038164;28;20504;-68
2022/08/28 11:47:43;;;;;;;0.00;0.00;;;22.40;99.90;;;;;;5037827;28;20486;-68
2022/08/28 11:50:30;;;;;;;0.00;0.00;;;22.40;99.90;;;;;;5037937;28;20463;-68
2022/08/28 11:53:26;;;;;;;0.00;0.00;;;22.30;99.90;;;;;;5038150;28;20437;-68
2022/08/28 11:56:21;;;;;;;0.00;0.00;;;22.20;99.90;;;;;;5038121;28;20437;-68
2022/08/28 11:59:10;;;;;;;0.00;0.00;;;22.10;99.90;;;;;;5037878;28;20783;-67
2022/08/28 12:01:39;;;;;;;0.00;0.00;;;22.00;99.90;;;;;;5038351;28;20440;-68
2022/08/28 12:04:12;;;;;;;0.00;0.00;;;21.80;99.90;;;;;;5037926;28;21055;-67
2022/08/28 12:06:53;;;;;;;0.00;0.00;;;21.70;99.90;;;;;;5044830;28;20569;-67
2022/08/28 12:09:44;;;;;;;0.00;0.00;;;21.70;99.90;;;;;;5044958;28;20891;-68
2022/08/28 12:12:28;;;;;;;0.00;0.00;;;21.90;99.90;;;;;;5044546;28;20463;-67
2022/08/28 12:15:01;;;;;;;0.00;0.00;;;22.10;99.90;;;;;;5044078;28;20448;-67
2022/08/28 12:17:48;;;;;;;0.00;0.00;;;22.40;99.90;;;;;;5044457;28;20564;-67
2022/08/28 12:20:28;;;;;;;0.00;0.00;;;22.40;99.90;;;;;;5044033;28;20549;-67
2022/08/28 12:22:58;;;;;;;0.00;0.00;;;22.50;99.90;;;;;;5044715;28;20471;-67
2022/08/28 12:25:32;;;;;;;0.00;0.00;;;22.40;99.90;;;;;;5044203;28;21040;-67
2022/08/28 12:28:06;;;;;;;0.00;0.00;;;22.40;99.90;;;;;;5044523;28;20520;-67
2022/08/28 12:30:48;;;;;;;0.00;0.00;;;22.40;99.90;;;;;;5044244;28;20507;-67
2022/08/28 12:33:23;;;;;;;0.00;0.00;;;22.40;99.90;;;;;;5044290;28;20651;-67
2022/08/28 12:35:52;;;;;;;0.00;0.00;;;22.30;99.90;;;;;;5044151;28;20451;-68
2022/08/28 12:38:21;;;;;;;0.00;0.00;;;22.30;99.90;;;;;;5044014;28;20458;-67
2022/08/28 12:40:52;;;;;;;0.00;0.00;;;22.30;99.90;;;;;;5043774;28;20464;-67
2022/08/28 12:43:34;;;;;;;0.00;0.00;;;22.40;99.90;;;;;;5043985;28;20498;-67
2022/08/28 12:46:10;;;;;;;0.00;0.00;;;22.60;99.90;;;;;;5043962;28;20449;-67
2022/08/28 12:48:51;;;;;;;0.00;0.00;;;22.60;99.90;;;;;;5043998;28;20477;-66
2022/08/28 12:51:23;;;;;;;0.00;0.00;;;22.60;99.90;;;;;;5043972;28;20443;-69
2022/08/28 12:53:54;;;;;;;0.00;0.00;;;22.50;99.90;;;;;;5043733;28;20776;-66
2022/08/28 12:56:24;;;;;;;0.00;0.00;;;22.50;99.90;;;;;;5044236;28;20450;-69
2022/08/28 12:58:52;;;;;;;0.00;0.00;;;22.50;99.90;;;;;;5043939;28;20553;-69
2022/08/28 13:01:27;;;;;;;0.00;0.00;;;22.30;99.90;;;;;;5043928;28;20472;-67
2022/08/28 13:03:58;;;;;;;0.00;0.00;;;22.20;99.90;;;;;;5044058;28;21085;-67
2022/08/28 13:06:30;;;;;;;0.00;0.00;;;22.20;99.90;;;;;;5044655;28;20520;-67
2022/08/28 13:09:04;;;;;;;0.00;0.00;;;22.30;99.90;;;;;;5043697;28;20480;-67
2022/08/28 13:11:36;;;;;;;0.00;0.00;;;22.30;99.90;;;;;;5044934;28;21019;-68
2022/08/28 13:14:06;;;;;;;0.00;0.00;;;22.30;99.90;;;;;;5045310;28;20467;-67
2022/08/28 13:16:38;;;;;;;0.00;0.00;;;22.30;99.90;;;;;;5042787;28;20613;-67
2022/08/28 13:19:25;;;;;;;0.00;0.00;;;22.30;99.90;;;;;;5041599;28;20457;-68
2022/08/28 13:21:59;;;;;;;0.00;0.00;;;22.40;99.90;;;;;;5042075;28;20487;-67
2022/08/28 13:24:44;;;;;;;0.00;0.00;;;22.30;99.90;;;;;;5042603;28;20458;-67